Time;durP1;ratioP1;P1;durP2;ratioP2;P2;SDS_P1;SDS_P2;PMS_P1;PMS_P2;Temp;Humidity;BMP_temperature;BMP_pressure;BME280_temperature;BME280_humidity;BME280_pressure;Samples;Min_cycle;Max_cycle;Signal;HPM_P1;HPM_P2
2023/08/27 00:00:44;;;;;;;16.73;6.82;;;;;;;18.61;100.00;98275.94;5092533;28;20110;-45
2023/08/27 00:03:09;;;;;;;13.27;6.15;;;;;;;18.62;100.00;98287.38;5093597;28;20043;-45
2023/08/27 00:05:42;;;;;;;14.00;6.90;;;;;;;18.59;100.00;98301.97;5075546;28;20083;-45
2023/08/27 00:08:08;;;;;;;14.77;6.47;;;;;;;18.49;100.00;98301.94;5094017;28;20085;-45
2023/08/27 00:10:34;;;;;;;22.60;7.53;;;;;;;18.36;100.00;98306.69;5093671;28;20024;-45
2023/08/27 00:13:00;;;;;;;33.97;21.48;;;;;;;18.26;100.00;98313.84;5093442;28;20023;-45
2023/08/27 00:15:25;;;;;;;23.17;13.00;;;;;;;18.30;100.00;98323.69;5092645;28;20107;-44
2023/08/27 00:17:51;;;;;;;28.67;13.18;;;;;;;18.35;100.00;98314.91;5093513;28;20031;-44
2023/08/27 00:20:17;;;;;;;596.67;364.35;;;;;;;18.42;100.00;98322.66;5093448;28;20049;-45
2023/08/27 00:22:43;;;;;;;94.32;33.38;;;;;;;18.45;100.00;98293.72;5093428;28;20046;-45
2023/08/27 00:25:08;;;;;;;25.75;11.52;;;;;;;18.60;100.00;98191.16;5092041;28;20032;-44
2023/08/27 00:27:34;;;;;;;29.80;17.58;;;;;;;18.67;100.00;98112.78;5092032;28;20028;-44
2023/08/27 00:30:03;;;;;;;0.20;0.20;;;;;;;18.52;100.00;98099.47;5093236;28;20020;-44
2023/08/27 00:32:31;;;;;;;0.52;0.47;;;;;;;18.62;100.00;98133.22;5093204;28;20020;-44
2023/08/27 00:34:57;;;;;;;0.00;0.00;;;;;;;18.52;100.00;98142.78;5093121;28;20012;-44
2023/08/27 00:37:23;;;;;;;0.05;0.05;;;;;;;18.36;100.00;98149.94;5093163;28;20028;-44
2023/08/27 00:39:48;;;;;;;0.08;0.08;;;;;;;18.40;100.00;98162.72;5091814;28;20054;-44
2023/08/27 00:42:14;;;;;;;0.00;0.00;;;;;;;18.53;100.00;98188.75;5093096;28;20043;-44
2023/08/27 00:44:43;;;;;;;0.00;0.00;;;;;;;18.74;100.00;98208.97;5092956;28;20016;-45
2023/08/27 00:47:11;;;;;;;0.00;0.00;;;;;;;18.86;100.00;98206.09;5092953;28;20028;-44
2023/08/27 00:49:38;;;;;;;0.65;0.55;;;;;;;19.04;100.00;98209.28;5091789;28;20020;-44
2023/08/27 00:52:05;;;;;;;0.00;0.00;;;;;;;19.16;100.00;98220.44;5074618;28;20516;-43
2023/08/27 00:54:32;;;;;;;0.10;0.10;;;;;;;19.25;100.00;98212.72;5092771;28;20439;-43
2023/08/27 00:56:58;;;;;;;0.15;0.15;;;;;;;19.03;100.00;98199.69;5093042;28;20054;-44
2023/08/27 00:59:24;;;;;;;0.40;0.40;;;;;;;18.96;100.00;98184.81;5092855;28;20085;-45
2023/08/27 01:01:51;;;;;;;0.35;0.35;;;;;;;19.15;100.00;98181.59;5092294;28;20055;-44
2023/08/27 01:04:17;;;;;;;0.00;0.00;;;;;;;19.24;100.00;98185.31;5092704;28;20040;-45
2023/08/27 01:06:43;;;;;;;0.00;0.00;;;;;;;19.33;100.00;98181.03;5091324;28;20409;-45
2023/08/27 01:09:33;;;;;;;0.22;0.22;;;;;;;19.34;100.00;98185.28;5092576;28;20035;-45
2023/08/27 01:12:09;;;;;;;0.13;0.13;;;;;;;19.30;100.00;98192.22;5092587;28;20099;-45
2023/08/27 01:14:36;;;;;;;3.00;0.43;;;;;;;19.01;100.00;98193.84;5092378;28;20504;-45
2023/08/27 01:17:03;;;;;;;0.15;0.10;;;;;;;18.91;100.00;98182.19;5092665;28;20024;-45
2023/08/27 01:19:30;;;;;;;0.00;0.00;;;;;;;18.82;100.00;98180.31;5091130;28;20034;-45
2023/08/27 01:21:55;;;;;;;0.80;0.80;;;;;;;18.77;100.00;98186.38;5091011;28;20044;-45
2023/08/27 01:24:21;;;;;;;0.00;0.00;;;;;;;18.71;100.00;98184.78;5091052;28;20058;-45
2023/08/27 01:26:54;;;;;;;0.00;0.00;;;;;;;18.60;100.00;98199.16;5090651;28;20110;-45
2023/08/27 01:29:32;;;;;;;0.15;0.10;;;;;;;18.65;100.00;98212.44;5092279;28;20493;-45
2023/08/27 01:32:28;;;;;;;0.20;0.20;;;;;;;18.86;100.00;98224.69;5092209;28;20028;-45
2023/08/27 01:34:55;;;;;;;0.57;0.50;;;;;;;19.14;100.00;98228.69;5090864;28;20651;-45
2023/08/27 01:37:22;;;;;;;5.15;1.08;;;;;;;19.19;100.00;98216.44;5090782;28;20062;-45
2023/08/27 01:39:58;;;;;;;0.90;0.88;;;;;;;19.07;100.00;98219.38;5092111;28;20097;-44
2023/08/27 01:42:24;;;;;;;0.00;0.00;;;;;;;18.85;100.00;98219.66;5090793;28;20074;-44
2023/08/27 01:44:49;;;;;;;0.05;0.05;;;;;;;18.65;100.00;98217.75;5090646;28;20036;-44
2023/08/27 01:47:15;;;;;;;0.15;0.15;;;;;;;18.47;100.00;98219.03;5090668;28;20031;-45
2023/08/27 01:49:41;;;;;;;0.00;0.00;;;;;;;18.46;100.00;98228.88;5092256;28;20028;-45
2023/08/27 01:52:06;;;;;;;0.00;0.00;;;;;;;18.48;100.00;98229.41;5091932;28;20024;-45
2023/08/27 01:54:33;;;;;;;0.52;0.45;;;;;;;18.53;100.00;98216.16;5091887;28;20023;-45
2023/08/27 01:56:59;;;;;;;0.00;0.00;;;;;;;18.55;100.00;98189.28;5091822;28;20502;-45
2023/08/27 01:59:24;;;;;;;0.00;0.00;;;;;;;18.44;100.00;98138.00;5073756;28;20561;-45
2023/08/27 02:01:50;;;;;;;1.00;0.77;;;;;;;18.55;100.00;98067.88;5091553;28;20048;-44
2023/08/27 02:04:16;;;;;;;0.00;0.00;;;;;;;18.42;100.00;98104.78;5091903;28;20017;-45
2023/08/27 02:06:41;;;;;;;0.17;0.17;;;;;;;18.53;100.00;98124.97;5090529;28;20020;-45
2023/08/27 02:09:07;;;;;;;0.10;0.10;;;;;;;18.31;100.00;98122.56;5090498;28;20024;-45
2023/08/27 02:11:33;;;;;;;0.10;0.10;;;;;;;18.16;100.00;98140.09;5092053;28;20146;-46
2023/08/27 02:13:59;;;;;;;0.00;0.00;;;;;;;18.19;100.00;98141.44;5091763;28;20020;-45
2023/08/27 02:16:24;;;;;;;0.20;0.20;;;;;;;18.25;100.00;98145.69;5090394;28;20063;-45
2023/08/27 02:18:50;;;;;;;0.00;0.00;;;;;;;18.49;100.00;98159.28;5091738;28;20177;-46
2023/08/27 02:21:16;;;;;;;4.03;0.77;;;;;;;18.72;100.00;98171.22;5091728;28;20020;-45
2023/08/27 02:23:42;;;;;;;0.00;0.00;;;;;;;18.80;100.00;98155.84;5090412;28;20023;-46
2023/08/27 02:26:08;;;;;;;0.52;0.52;;;;;;;18.88;100.00;98166.75;5091538;28;20032;-45
2023/08/27 02:28:33;;;;;;;0.08;0.08;;;;;;;18.98;100.00;98167.81;5090636;28;20084;-46
2023/08/27 02:30:59;;;;;;;0.10;0.10;;;;;;;19.07;100.00;98166.97;5091609;28;20374;-45
2023/08/27 02:33:25;;;;;;;0.00;0.00;;;;;;;19.16;100.00;98156.59;5091589;28;20028;-44
2023/08/27 02:35:51;;;;;;;0.00;0.00;;;;;;;19.16;100.00;98140.66;5091429;28;20084;-45
2023/08/27 02:38:18;;;;;;;0.35;0.35;;;;;;;18.76;100.00;98126.31;5094125;28;20439;-45
2023/08/27 02:40:43;;;;;;;0.15;0.15;;;;;;;18.60;100.00;98128.19;5094042;28;20036;-45
2023/08/27 02:43:09;;;;;;;0.00;0.00;;;;;;;18.66;100.00;98129.78;5095674;28;20020;-45
2023/08/27 02:45:36;;;;;;;0.20;0.20;;;;;;;18.56;100.00;98145.72;5094012;28;20513;-45
2023/08/27 02:48:02;;;;;;;0.10;0.10;;;;;;;18.39;100.00;98153.97;5095252;28;20023;-46
2023/08/27 02:50:27;;;;;;;0.00;0.00;;;;;;;18.17;100.00;98149.66;5093914;28;20402;-45
2023/08/27 02:52:53;;;;;;;0.08;0.08;;;;;;;18.07;100.00;98162.94;5095210;28;20042;-45
2023/08/27 02:55:19;;;;;;;0.00;0.00;;;;;;;18.10;100.00;98165.03;5095083;28;20020;-45
2023/08/27 02:57:45;;;;;;;0.00;0.00;;;;;;;18.05;100.00;98166.88;5095124;28;20039;-46
2023/08/27 03:00:13;;;;;;;0.05;0.05;;;;;;;17.95;100.00;98151.75;5093766;28;20024;-46
2023/08/27 03:02:38;;;;;;;0.00;0.00;;;;;;;17.94;100.00;98140.31;5094812;28;20578;-46
2023/08/27 03:05:04;;;;;;;0.00;0.00;;;;;;;17.86;100.00;98143.47;5093599;28;20020;-46
2023/08/27 03:07:31;;;;;;;0.00;0.00;;;;;;;17.72;100.00;98147.63;5094913;28;20086;-46
2023/08/27 03:09:56;;;;;;;1.10;1.00;;;;;;;17.76;100.00;98148.72;5094877;28;20081;-46
2023/08/27 03:12:22;;;;;;;0.00;0.00;;;;;;;17.88;100.00;98141.34;5094798;28;20045;-46
2023/08/27 03:14:48;;;;;;;0.00;0.00;;;;;;;18.17;100.00;98136.38;5094742;28;20024;-46
2023/08/27 03:17:14;;;;;;;0.63;0.63;;;;;;;18.25;100.00;98129.75;5094685;28;20115;-46
2023/08/27 03:19:39;;;;;;;0.00;0.00;;;;;;;18.10;100.00;98127.06;5093457;28;20090;-46
2023/08/27 03:22:06;;;;;;;0.00;0.00;;;;;;;18.30;100.00;98121.78;5093324;28;20027;-46
2023/08/27 03:24:32;;;;;;;0.00;0.00;;;;;;;18.60;100.00;98108.78;5094574;28;20035;-46
2023/08/27 03:26:58;;;;;;;0.30;0.30;;;;;;;18.58;100.00;98105.59;5094461;28;20024;-46
2023/08/27 03:29:24;;;;;;;0.00;0.00;;;;;;;18.69;100.00;98102.66;5093222;28;20028;-46
2023/08/27 03:31:50;;;;;;;0.75;0.47;;;;;;;18.96;100.00;98107.69;5093127;28;20387;-46
2023/08/27 03:34:16;;;;;;;0.00;0.00;;;;;;;18.98;100.00;98119.94;5094262;28;20028;-45
2023/08/27 03:36:42;;;;;;;0.00;0.00;;;;;;;18.90;100.00;98122.06;5094618;28;20031;-45
2023/08/27 03:39:08;;;;;;;0.00;0.00;;;;;;;18.65;100.00;98127.38;5094277;28;20024;-45
2023/08/27 03:41:34;;;;;;;1.15;0.82;;;;;;;18.59;100.00;98134.53;5094154;28;20024;-45
2023/08/27 03:44:00;;;;;;;1.08;0.43;;;;;;;18.65;100.00;98132.69;5094097;28;20024;-45
2023/08/27 03:46:25;;;;;;;0.00;0.00;;;;;;;18.78;100.00;98121.53;5092804;28;20497;-46
2023/08/27 03:48:51;;;;;;;0.00;0.00;;;;;;;18.79;100.00;98125.78;5092595;28;20111;-45
2023/08/27 03:51:17;;;;;;;0.95;0.52;;;;;;;18.88;100.00;98113.56;5094077;28;20081;-45
2023/08/27 03:53:43;;;;;;;0.30;0.30;;;;;;;19.02;100.00;98099.72;5094060;28;20016;-44
2023/08/27 03:56:08;;;;;;;0.20;0.20;;;;;;;18.94;100.00;98109.81;5093835;28;20063;-44
2023/08/27 03:58:34;;;;;;;0.00;0.00;;;;;;;18.76;100.00;98107.69;5094007;28;20020;-44
2023/08/27 04:01:00;;;;;;;0.10;0.10;;;;;;;18.60;100.00;98114.09;5092559;28;20028;-44
2023/08/27 04:03:25;;;;;;;0.20;0.20;;;;;;;18.61;100.00;98121.78;5093466;28;20044;-45
2023/08/27 04:05:51;;;;;;;0.20;0.20;;;;;;;18.60;100.00;98122.06;5093772;28;20036;-45
2023/08/27 04:08:17;;;;;;;0.20;0.20;;;;;;;18.65;100.00;98114.09;5093766;28;20021;-45
2023/08/27 04:10:53;;;;;;;0.00;0.00;;;;;;;18.56;100.00;98119.94;5092329;28;20031;-45
2023/08/27 04:13:19;;;;;;;0.00;0.00;;;;;;;18.68;100.00;98117.00;5094011;28;20107;-45
2023/08/27 04:16:17;;;;;;;0.00;0.00;;;;;;;18.67;100.00;98120.75;5092130;28;20438;-45
2023/08/27 04:18:43;;;;;;;0.00;0.00;;;;;;;18.87;100.00;98121.81;5048089;28;20140;-46
2023/08/27 04:21:09;;;;;;;0.00;0.00;;;;;;;19.07;100.00;98124.41;5093484;28;20048;-45
2023/08/27 04:23:34;;;;;;;0.10;0.10;;;;;;;19.13;100.00;98133.97;5093463;28;20027;-45
2023/08/27 04:26:03;;;;;;;0.00;0.00;;;;;;;19.35;100.00;98131.00;5093600;28;20085;-45
2023/08/27 04:28:31;;;;;;;0.00;0.00;;;;;;;19.55;100.00;98124.00;5093633;28;20024;-45
2023/08/27 04:30:57;;;;;;;0.00;0.00;;;;;;;19.32;100.00;98120.91;5093203;28;20073;-45
2023/08/27 04:33:23;;;;;;;0.00;0.00;;;;;;;19.21;100.00;98122.00;5091943;28;20034;-45
2023/08/27 04:35:50;;;;;;;1.55;0.35;;;;;;;19.01;100.00;98114.06;5093028;28;20020;-45
2023/08/27 04:38:16;;;;;;;0.90;0.90;;;;;;;19.18;100.00;98101.28;5093104;28;20035;-45
2023/08/27 04:40:42;;;;;;;0.00;0.00;;;;;;;18.83;100.00;98096.81;5091837;28;20077;-46
2023/08/27 04:43:07;;;;;;;0.00;0.00;;;;;;;18.66;100.00;98113.03;5093056;28;20099;-45
2023/08/27 04:45:34;;;;;;;0.00;0.00;;;;;;;18.80;100.00;98124.75;5093163;28;20039;-45
2023/08/27 04:48:00;;;;;;;0.00;0.00;;;;;;;18.88;100.00;98129.50;5091907;28;20028;-46
2023/08/27 04:50:26;;;;;;;0.00;0.00;;;;;;;18.93;100.00;98126.88;5092890;28;20052;-45
2023/08/27 04:52:51;;;;;;;0.10;0.10;;;;;;;19.10;100.00;98118.56;5092840;28;20449;-46
2023/08/27 04:55:18;;;;;;;0.00;0.00;;;;;;;19.11;100.00;98119.38;5092774;28;20055;-46
2023/08/27 04:57:43;;;;;;;2.83;0.63;;;;;;;19.34;100.00;98113.44;5092709;28;20073;-46
2023/08/27 05:00:19;;;;;;;0.80;0.80;;;;;;;19.25;100.00;98111.63;5092172;28;20420;-46
2023/08/27 05:02:49;;;;;;;0.00;0.00;;;;;;;19.44;100.00;98104.63;5091402;28;20139;-46
2023/08/27 05:05:16;;;;;;;0.00;0.00;;;;;;;19.64;100.00;98119.72;5092723;28;20055;-46
2023/08/27 05:07:42;;;;;;;0.00;0.00;;;;;;;19.71;100.00;98114.91;5091325;28;20032;-46
2023/08/27 05:10:08;;;;;;;0.00;0.00;;;;;;;19.60;100.00;98116.03;5091216;28;20025;-46
2023/08/27 05:12:34;;;;;;;0.08;0.08;;;;;;;19.53;100.00;98126.16;5091218;28;20128;-46
2023/08/27 05:15:00;;;;;;;0.00;0.00;;;;;;;19.73;100.00;98130.63;5092442;28;20095;-46
2023/08/27 05:17:26;;;;;;;0.93;0.63;;;;;;;19.54;100.00;98120.56;5091173;28;20438;-46
2023/08/27 05:19:52;;;;;;;0.20;0.20;;;;;;;19.29;100.00;98112.66;5092448;28;20027;-45
2023/08/27 05:22:17;;;;;;;0.00;0.00;;;;;;;19.26;100.00;98114.00;5092438;28;20051;-44
2023/08/27 05:24:43;;;;;;;0.00;0.00;;;;;;;19.21;100.00;98106.03;5092359;28;20038;-45
2023/08/27 05:27:09;;;;;;;0.13;0.13;;;;;;;19.08;100.00;98101.31;5091025;28;20024;-45
2023/08/27 05:29:34;;;;;;;0.00;0.00;;;;;;;18.87;100.00;98097.88;5090982;28;20024;-45
2023/08/27 05:32:00;;;;;;;0.00;0.00;;;;;;;18.81;100.00;98099.72;5090889;28;20439;-44
2023/08/27 05:34:26;;;;;;;0.00;0.00;;;;;;;18.87;100.00;98097.88;5090847;28;20024;-45
2023/08/27 05:36:52;;;;;;;0.00;0.00;;;;;;;18.82;100.00;98106.66;5092143;28;20405;-45
2023/08/27 05:39:18;;;;;;;0.30;0.30;;;;;;;18.77;100.00;98112.75;5090801;28;20113;-45
2023/08/27 05:41:44;;;;;;;0.73;0.73;;;;;;;18.78;100.00;98118.88;5091988;28;20032;-45
2023/08/27 05:44:10;;;;;;;0.00;0.00;;;;;;;18.72;100.00;98138.53;5092062;28;20024;-44
2023/08/27 05:46:35;;;;;;;0.00;0.00;;;;;;;18.90;100.00;98153.19;5092035;28;20035;-44
2023/08/27 05:49:01;;;;;;;0.00;0.00;;;;;;;18.97;100.00;98159.00;5092022;28;20023;-44
2023/08/27 05:51:27;;;;;;;0.00;0.00;;;;;;;19.06;100.00;98164.59;5090624;28;20494;-44
2023/08/27 05:53:52;;;;;;;0.10;0.10;;;;;;;19.04;100.00;98174.72;5090603;28;20047;-44
2023/08/27 05:56:18;;;;;;;0.00;0.00;;;;;;;18.90;100.00;98172.59;5090570;28;20422;-44
2023/08/27 05:58:44;;;;;;;0.00;0.00;;;;;;;18.82;100.00;98167.81;5091853;28;20024;-44
2023/08/27 06:01:10;;;;;;;0.00;0.00;;;;;;;18.77;100.00;98162.44;5091910;28;20024;-45
2023/08/27 06:03:36;;;;;;;0.13;0.13;;;;;;;18.83;100.00;98176.56;5091663;28;20097;-45
2023/08/27 06:06:02;;;;;;;0.73;0.73;;;;;;;19.07;100.00;98174.94;5090425;28;20032;-45
2023/08/27 06:08:27;;;;;;;0.57;0.57;;;;;;;19.03;100.00;98189.06;5090554;28;20524;-46
2023/08/27 06:10:54;;;;;;;0.20;0.20;;;;;;;19.01;100.00;98188.53;5091765;28;20554;-46
2023/08/27 06:13:20;;;;;;;0.40;0.28;;;;;;;19.32;100.00;98183.97;5094567;28;20363;-46
2023/08/27 06:15:46;;;;;;;0.13;0.13;;;;;;;19.19;100.00;98182.66;5094501;28;20486;-46
2023/08/27 06:18:11;;;;;;;0.00;0.00;;;;;;;19.13;100.00;98179.19;5095900;28;20441;-46
2023/08/27 06:20:38;;;;;;;0.20;0.10;;;;;;;19.00;100.00;98184.28;5094604;28;20024;-46
2023/08/27 06:23:07;;;;;;;0.20;0.20;;;;;;;19.09;100.00;98182.66;5094474;28;20430;-46
2023/08/27 06:25:33;;;;;;;0.32;0.32;;;;;;;19.08;100.00;98175.78;5095988;28;20444;-46
2023/08/27 06:28:01;;;;;;;0.20;0.10;;;;;;;19.14;100.00;98172.03;5094360;28;20039;-46
2023/08/27 06:30:27;;;;;;;0.00;0.00;;;;;;;19.61;100.00;98172.72;5095574;28;20405;-46
2023/08/27 06:32:53;;;;;;;0.00;0.00;;;;;;;19.80;100.00;98186.22;5095617;28;20028;-46
2023/08/27 06:35:19;;;;;;;0.00;0.00;;;;;;;19.67;100.00;98193.72;5095383;28;20066;-46
2023/08/27 06:37:45;;;;;;;0.10;0.10;;;;;;;19.56;100.00;98190.28;5095456;28;20024;-46
2023/08/27 06:40:12;;;;;;;0.08;0.08;;;;;;;19.47;100.00;98199.09;5095398;28;20016;-46
2023/08/27 06:42:38;;;;;;;0.10;0.10;;;;;;;19.31;100.00;98203.66;5095403;28;20020;-46
2023/08/27 06:45:04;;;;;;;0.00;0.00;;;;;;;19.32;100.00;98203.41;5094107;28;20401;-46
2023/08/27 06:47:30;;;;;;;0.25;0.25;;;;;;;19.36;100.00;98203.66;5093996;28;20401;-46
2023/08/27 06:49:56;;;;;;;0.28;0.28;;;;;;;19.32;100.00;98205.25;5095221;28;20020;-46
2023/08/27 06:52:22;;;;;;;0.00;0.00;;;;;;;19.16;100.00;98218.56;5095508;28;20145;-46
2023/08/27 06:54:47;;;;;;;0.15;0.15;;;;;;;19.06;100.00;98225.78;5095099;28;20055;-46
2023/08/27 06:57:13;;;;;;;0.00;0.00;;;;;;;18.98;100.00;98228.97;5093889;28;20086;-46
2023/08/27 06:59:39;;;;;;;0.00;0.00;;;;;;;18.93;100.00;98235.06;5095136;28;20043;-46
2023/08/27 07:02:05;;;;;;;6.75;1.25;;;;;;;18.87;100.00;98244.09;5094688;28;20490;-46
2023/08/27 07:04:31;;;;;;;0.00;0.00;;;;;;;18.85;100.00;98235.59;5093825;28;20505;-46
2023/08/27 07:06:57;;;;;;;0.00;0.00;;;;;;;18.81;100.00;98231.88;5093686;28;20119;-46
2023/08/27 07:09:22;;;;;;;0.00;0.00;;;;;;;18.77;100.00;98226.25;5095273;28;20103;-45
2023/08/27 07:11:52;;;;;;;0.45;0.22;;;;;;;18.75;100.00;98221.22;5094935;28;20405;-46
2023/08/27 07:14:17;;;;;;;0.00;0.00;;;;;;;18.76;100.00;98222.00;5094935;28;20023;-46
2023/08/27 07:16:43;;;;;;;0.00;0.00;;;;;;;18.76;100.00;98214.03;5094771;28;20044;-46
2023/08/27 07:19:09;;;;;;;0.00;0.00;;;;;;;18.70;100.00;98212.44;5093469;28;20493;-46
2023/08/27 07:21:35;;;;;;;0.15;0.13;;;;;;;18.72;100.00;98210.31;5094748;28;20158;-46
2023/08/27 07:24:01;;;;;;;0.00;0.00;;;;;;;18.70;100.00;98207.91;5092765;28;20060;-46
2023/08/27 07:26:26;;;;;;;0.00;0.00;;;;;;;18.75;100.00;98204.44;5094910;28;20114;-46
2023/08/27 07:28:52;;;;;;;0.00;0.00;;;;;;;18.82;100.00;98201.59;5093283;28;20021;-46
2023/08/27 07:31:17;;;;;;;0.00;0.00;;;;;;;19.06;100.00;98201.84;5093221;28;20036;-46
2023/08/27 07:33:43;;;;;;;0.00;0.00;;;;;;;19.10;100.00;98203.69;5094439;28;20032;-46
2023/08/27 07:36:09;;;;;;;0.00;0.00;;;;;;;19.13;100.00;98189.06;5093045;28;20031;-46
2023/08/27 07:38:40;;;;;;;0.08;0.08;;;;;;;19.21;100.00;98183.19;5094393;28;20043;-46
2023/08/27 07:41:06;;;;;;;0.00;0.00;;;;;;;19.29;100.00;98189.81;5094354;28;20028;-46
2023/08/27 07:43:32;;;;;;;0.10;0.10;;;;;;;19.61;100.00;98188.69;5094290;28;20017;-46
2023/08/27 07:45:59;;;;;;;0.17;0.17;;;;;;;19.69;100.00;98182.78;5094459;28;20502;-46
2023/08/27 07:48:25;;;;;;;3.03;0.45;;;;;;;19.80;100.00;98188.91;5094214;28;20046;-44
2023/08/27 07:50:51;;;;;;;0.00;0.00;;;;;;;19.74;100.00;98183.59;5094144;28;20099;-44
2023/08/27 07:53:16;;;;;;;0.20;0.20;;;;;;;19.83;100.00;98194.47;5092793;28;20016;-44
2023/08/27 07:55:42;;;;;;;1.75;0.30;;;;;;;19.71;100.00;98188.69;5093883;28;20020;-45
2023/08/27 07:58:07;;;;;;;1.00;0.88;;;;;;;19.99;100.00;98192.53;5093991;28;20017;-44
2023/08/27 08:00:33;;;;;;;0.00;0.00;;;;;;;20.06;100.00;98192.25;5093965;28;20059;-44
2023/08/27 08:02:59;;;;;;;0.10;0.10;;;;;;;20.29;100.00;98201.47;5092331;28;20131;-44
2023/08/27 08:05:25;;;;;;;0.52;0.40;;;;;;;20.59;100.00;98202.38;5092467;28;20536;-44
2023/08/27 08:07:50;;;;;;;0.43;0.25;;;;;;;20.82;100.00;98206.19;5093811;28;20024;-44
2023/08/27 08:10:18;;;;;;;0.17;0.13;;;;;;;21.02;100.00;98203.34;5093767;28;20016;-44
2023/08/27 08:12:44;;;;;;;0.10;0.10;;;;;;;21.22;100.00;98212.25;5093906;28;20032;-44
2023/08/27 08:15:10;;;;;;;0.55;0.55;;;;;;;20.87;100.00;98206.94;5092254;28;20431;-44
2023/08/27 08:17:36;;;;;;;1.10;0.70;;;;;;;20.89;100.00;98207.47;5093521;28;20035;-44
2023/08/27 08:20:02;;;;;;;0.00;0.00;;;;;;;20.74;100.00;98211.06;5093601;28;20024;-44
2023/08/27 08:22:28;;;;;;;0.10;0.10;;;;;;;20.64;100.00;98218.31;5093460;28;20069;-44
2023/08/27 08:24:55;;;;;;;0.00;0.00;;;;;;;20.54;100.00;98241.28;5093465;28;20032;-44
2023/08/27 08:27:21;;;;;;;0.10;0.10;;;;;;;20.58;100.00;98243.38;5092196;28;20043;-44
2023/08/27 08:29:47;;;;;;;0.20;0.20;;;;;;;20.54;100.00;98245.81;5092052;28;20058;-45
2023/08/27 08:32:13;;;;;;;0.03;0.03;;;;;;;20.55;100.00;98258.06;5093366;28;20443;-44
2023/08/27 08:34:39;;;;;;;0.00;0.00;;;;;;;20.48;100.00;98254.91;5092275;28;20027;-44
2023/08/27 08:37:05;;;;;;;0.00;0.00;;;;;;;20.37;100.00;98264.06;5091820;28;20082;-45
2023/08/27 08:39:31;;;;;;;0.08;0.08;;;;;;;20.31;100.00;98264.06;5093210;28;20024;-44
2023/08/27 08:42:26;;;;;;;0.30;0.30;;;;;;;20.15;100.00;98250.00;5091832;28;20108;-44
2023/08/27 08:45:13;;;;;;;0.00;0.00;;;;;;;20.24;100.00;98258.25;5091826;28;20111;-44
2023/08/27 08:47:39;;;;;;;0.10;0.10;;;;;;;20.38;100.00;98263.75;5093105;28;20119;-44
2023/08/27 08:50:08;;;;;;;0.22;0.22;;;;;;;20.47;100.00;98264.78;5091710;28;20111;-44
2023/08/27 08:52:41;;;;;;;0.43;0.43;;;;;;;20.49;100.00;98273.28;5093217;28;20024;-45
2023/08/27 08:55:11;;;;;;;0.20;0.20;;;;;;;20.52;100.00;98266.63;5092896;28;20031;-44
2023/08/27 08:57:47;;;;;;;0.20;0.20;;;;;;;20.63;100.00;98260.19;5092864;28;20016;-44
2023/08/27 09:00:15;;;;;;;0.10;0.10;;;;;;;20.89;100.00;98268.81;5074586;28;20063;-44
2023/08/27 09:02:42;;;;;;;0.10;0.10;;;;;;;21.09;100.00;98277.75;5074430;28;20036;-44
2023/08/27 09:05:12;;;;;;;1.23;1.13;;;;;;;21.35;100.00;98283.66;5091349;28;20088;-44
2023/08/27 09:07:42;;;;;;;0.00;0.00;;;;;;;21.55;100.00;98290.72;5092665;28;20023;-44
2023/08/27 09:10:10;;;;;;;0.10;0.10;;;;;;;21.70;100.00;98284.44;5092954;28;20027;-44
2023/08/27 09:12:39;;;;;;;0.10;0.10;;;;;;;21.63;100.00;98279.44;5091178;28;20501;-44
2023/08/27 09:15:07;;;;;;;0.17;0.17;;;;;;;21.63;100.00;98282.09;5092426;28;20028;-44
2023/08/27 09:17:33;;;;;;;0.00;0.00;;;;;;;21.57;100.00;98285.09;5091207;28;20048;-44
2023/08/27 09:19:58;;;;;;;0.00;0.00;;;;;;;21.54;100.00;98281.09;5091169;28;20079;-44
2023/08/27 09:22:25;;;;;;;0.00;0.00;;;;;;;21.61;100.00;98289.59;5092422;28;20020;-44
2023/08/27 09:24:51;;;;;;;0.00;0.00;;;;;;;21.57;100.00;98283.22;5091035;28;20055;-44
2023/08/27 09:27:18;;;;;;;0.00;0.00;;;;;;;21.51;100.00;98295.00;5091041;28;20035;-44
2023/08/27 09:29:46;;;;;;;1.13;0.80;;;;;;;21.52;100.00;98294.72;5092546;28;20393;-44
2023/08/27 09:32:23;;;;;;;0.00;0.00;;;;;;;21.80;100.00;98292.34;5092176;28;20031;-44
2023/08/27 09:34:49;;;;;;;0.30;0.30;;;;;;;21.94;100.00;98295.13;5092206;28;20117;-44
2023/08/27 09:37:15;;;;;;;0.30;0.30;;;;;;;21.91;100.00;98303.69;5090893;28;20111;-44
2023/08/27 09:39:44;;;;;;;0.10;0.10;;;;;;;21.93;100.00;98302.34;5090863;28;20189;-44
2023/08/27 09:42:13;;;;;;;0.57;0.57;;;;;;;21.84;100.00;98295.25;5092117;28;20021;-44
2023/08/27 09:44:39;;;;;;;0.13;0.13;;;;;;;21.66;100.00;98294.09;5090757;28;20405;-44
2023/08/27 09:47:05;;;;;;;0.55;0.55;;;;;;;21.68;100.00;98300.72;5091883;28;20027;-44
2023/08/27 09:49:31;;;;;;;0.00;0.00;;;;;;;21.84;100.00;98298.69;5073967;28;20035;-44
2023/08/27 09:51:58;;;;;;;0.00;0.00;;;;;;;22.10;100.00;98299.22;5091995;28;20016;-44
2023/08/27 09:54:29;;;;;;;0.00;0.00;;;;;;;22.17;100.00;98298.06;5090621;28;20472;-44
2023/08/27 09:57:05;;;;;;;0.00;0.00;;;;;;;22.24;100.00;98296.66;5090710;28;20032;-44
2023/08/27 09:59:30;;;;;;;1.10;0.65;;;;;;;22.42;100.00;98297.78;5092221;28;20405;-44
2023/08/27 10:01:56;;;;;;;0.20;0.20;;;;;;;22.66;100.00;98291.59;5090586;28;20024;-44
2023/08/27 10:04:22;;;;;;;0.00;0.00;;;;;;;22.72;100.00;98282.41;5091613;28;20130;-44
2023/08/27 10:06:48;;;;;;;0.08;0.08;;;;;;;22.73;100.00;98289.34;5092091;28;20031;-44
2023/08/27 10:09:15;;;;;;;0.13;0.13;;;;;;;22.74;100.00;98290.94;5073785;28;20077;-44
2023/08/27 10:11:45;;;;;;;0.15;0.15;;;;;;;22.92;100.00;98290.13;5073664;28;20039;-44
2023/08/27 10:14:14;;;;;;;0.10;0.10;;;;;;;22.91;100.00;98299.22;5090468;28;20053;-44
2023/08/27 10:16:40;;;;;;;0.28;0.28;;;;;;;22.88;100.00;98291.78;5091621;28;20117;-44
2023/08/27 10:19:06;;;;;;;3.55;2.50;;;;;;;22.65;100.00;98295.34;5090449;28;20024;-44
2023/08/27 10:21:32;;;;;;;6.13;1.90;;;;;;;22.52;100.00;98278.94;5090431;28;20016;-44
2023/08/27 10:23:58;;;;;;;7.28;2.45;;;;;;;22.65;100.00;98276.63;5091682;28;20016;-44
2023/08/27 10:26:24;;;;;;;8.70;2.47;;;;;;;22.77;100.00;98284.22;5090319;28;20036;-44
2023/08/27 10:28:53;;;;;;;12.85;2.30;;;;;;;22.83;100.00;98294.53;5091652;28;20024;-44
2023/08/27 10:31:19;;;;;;;4.15;1.95;;;;;;;23.08;100.00;98296.06;5090319;28;20028;-44
2023/08/27 10:33:45;;;;;;;5.30;1.98;;;;;;;23.06;100.00;98292.06;5090273;28;20028;-44
2023/08/27 10:36:18;;;;;;;14.82;2.30;;;;;;;23.31;100.00;98289.00;5091479;28;20050;-44
2023/08/27 10:38:47;;;;;;;258.00;17.37;;;;;;;23.37;100.00;98294.28;5091631;28;20049;-44
2023/08/27 10:41:24;;;;;;;851.30;74.65;;;;;;;23.35;100.00;98296.44;5090205;28;20035;-44
2023/08/27 10:43:49;;;;;;;53.50;4.40;;;;;;;23.47;100.00;98294.88;5091582;28;20489;-44
2023/08/27 10:46:20;;;;;;;42.00;4.50;;;;;;;23.29;100.00;98288.50;5091470;28;20046;-44
2023/08/27 10:48:53;;;;;;;17.50;2.05;;;;;;;23.22;100.00;98293.44;5091500;28;20021;-44
2023/08/27 10:51:23;;;;;;;6.38;1.10;;;;;;;23.18;100.00;98287.09;5073384;28;20016;-44
2023/08/27 10:53:49;;;;;;;9.32;2.30;;;;;;;23.26;100.00;98283.75;5091455;28;20043;-44
2023/08/27 10:56:32;;;;;;;4.85;1.63;;;;;;;23.23;100.00;98283.53;5091521;28;20473;-44
2023/08/27 10:59:09;;;;;;;20.55;2.40;;;;;;;23.07;100.00;98275.72;5093622;28;20031;-44
2023/08/27 11:01:59;;;;;;;2.55;1.13;;;;;;;23.05;100.00;98269.09;5095331;28;20024;-44
2023/08/27 11:04:42;;;;;;;3.53;1.30;;;;;;;23.32;100.00;98269.16;5095058;28;20566;-44
2023/08/27 11:07:19;;;;;;;1.13;0.95;;;;;;;23.36;100.00;98280.06;5093742;28;20056;-44
2023/08/27 11:09:55;;;;;;;6.15;1.30;;;;;;;23.25;100.00;98282.13;5093711;28;20043;-44
2023/08/27 11:12:26;;;;;;;8.10;1.50;;;;;;;23.05;100.00;98288.59;5094899;28;20107;-45
2023/08/27 11:15:13;;;;;;;12.52;2.78;;;;;;;22.88;100.00;98291.00;5094719;28;20122;-45
2023/08/27 11:17:39;;;;;;;16.60;3.00;;;;;;;23.13;100.00;98300.53;5077193;28;20031;-44
2023/08/27 11:20:25;;;;;;;5.88;1.83;;;;;;;23.16;100.00;98283.91;5093389;28;20559;-45
2023/08/27 11:23:00;;;;;;;;;;;;;;;23.07;100.00;98289.13;5095092;28;20034;-45
2023/08/27 11:25:28;;;;;;;6.47;1.73;;;;;;;23.20;100.00;98284.09;5093646;28;20355;-45